Time;durP1;ratioP1;P1;durP2;ratioP2;P2;SDS_P1;SDS_P2;PMS_P1;PMS_P2;Temp;Humidity;BMP_temperature;BMP_pressure;BME280_temperature;BME280_humidity;BME280_pressure;Samples;Min_cycle;Max_cycle;Signal;HPM_P1;HPM_P2
2021/10/11 00:10:06;;;;;;;4.47;3.83;;;;;;;3.63;87.17;100286.78;2342046;69;20289;-80
2021/10/11 00:13:09;;;;;;;4.91;4.13;;;;;;;3.61;86.55;100288.41;2333922;69;20308;-80
2021/10/11 00:16:12;;;;;;;6.70;4.39;;;;;;;3.53;86.46;100285.53;2342910;68;20296;-80
2021/10/11 00:19:15;;;;;;;7.80;4.56;;;;;;;3.47;86.52;100282.75;2343402;68;20292;-80
2021/10/11 00:22:19;;;;;;;7.95;4.57;;;;;;;3.42;86.58;100279.13;2353536;68;20265;-80
2021/10/11 00:25:22;;;;;;;6.04;4.54;;;;;;;3.39;86.72;100275.56;2349168;68;20249;-80
2021/10/11 00:28:24;;;;;;;6.06;4.44;;;;;;;3.37;87.03;100285.75;2353744;68;20270;-80
2021/10/11 00:31:27;;;;;;;5.20;4.50;;;;;;;3.32;87.06;100285.59;2359049;68;20270;-80
2021/10/11 00:34:30;;;;;;;7.56;4.71;;;;;;;3.30;87.18;100294.94;2334184;68;20264;-80
2021/10/11 00:37:33;;;;;;;6.21;4.47;;;;;;;3.27;87.29;100286.25;2337642;68;20248;-80
2021/10/11 00:40:35;;;;;;;6.21;4.41;;;;;;;3.25;87.32;100282.75;2339327;68;20308;-80
2021/10/11 00:43:39;;;;;;;8.45;4.89;;;;;;;3.22;87.28;100285.16;2348049;68;20248;-80
2021/10/11 00:46:41;;;;;;;6.88;4.91;;;;;;;3.21;87.40;100276.59;2347584;68;20288;-80
2021/10/11 00:49:44;;;;;;;8.16;4.69;;;;;;;3.24;87.57;100278.44;2349778;68;20240;-79
2021/10/11 00:52:47;;;;;;;5.28;4.36;;;;;;;3.21;87.60;100280.84;2332885;69;20285;-79
2021/10/11 00:55:50;;;;;;;7.19;4.76;;;;;;;3.19;87.53;100285.94;2339544;68;20244;-80
2021/10/11 00:58:53;;;;;;;5.11;4.22;;;;;;;3.14;87.39;100276.31;2339204;68;20311;-80
2021/10/11 01:01:55;;;;;;;6.03;4.24;;;;;;;3.10;87.45;100283.00;2340432;68;20497;-80
2021/10/11 01:04:58;;;;;;;5.85;4.55;;;;;;;3.05;87.44;100281.94;2346089;68;20488;-81
2021/10/11 01:08:01;;;;;;;7.55;5.06;;;;;;;3.01;87.49;100283.50;2352482;68;20266;-79
2021/10/11 01:11:05;;;;;;;6.10;4.49;;;;;;;3.01;87.60;100282.63;2340735;68;20326;-81
2021/10/11 01:14:08;;;;;;;6.95;4.81;;;;;;;2.98;87.61;100264.56;2350349;68;20257;-80
2021/10/11 01:17:10;;;;;;;7.46;4.75;;;;;;;2.96;87.61;100266.19;2342508;68;20272;-79
2021/10/11 01:20:13;;;;;;;9.98;5.49;;;;;;;2.94;87.61;100266.13;2353169;68;20304;-80
2021/10/11 01:23:16;;;;;;;9.69;6.31;;;;;;;2.97;87.55;100271.38;2345318;68;20308;-81
2021/10/11 01:26:19;;;;;;;12.57;6.76;;;;;;;2.93;87.54;100261.81;2345410;68;20289;-79
2021/10/11 01:29:22;;;;;;;11.18;6.05;;;;;;;2.89;87.53;100261.66;2334385;68;20249;-80
2021/10/11 01:32:25;;;;;;;8.65;5.96;;;;;;;2.86;87.52;100258.94;2354521;66;43351;-80
2021/10/11 01:35:28;;;;;;;8.49;6.20;;;;;;;2.82;87.60;100260.50;2345634;68;20329;-80
2021/10/11 01:38:30;;;;;;;10.54;6.75;;;;;;;2.79;87.51;100265.50;2354981;68;20324;-79
2021/10/11 01:41:33;;;;;;;11.89;6.90;;;;;;;2.76;87.52;100259.38;2344624;68;20296;-80
2021/10/11 01:44:36;;;;;;;10.59;6.32;;;;;;;2.75;87.81;100257.63;2359394;68;20316;-79
2021/10/11 01:47:39;;;;;;;8.84;6.00;;;;;;;2.76;87.97;100273.09;2347737;66;38626;-80
2021/10/11 01:50:42;;;;;;;9.55;6.53;;;;;;;2.73;87.81;100271.28;2339231;68;20232;-80
2021/10/11 01:53:44;;;;;;;11.02;6.43;;;;;;;2.69;87.73;100261.72;2346569;68;20372;-80
2021/10/11 01:56:48;;;;;;;10.86;6.53;;;;;;;2.69;87.86;100265.94;2346788;68;20278;-80
2021/10/11 01:59:50;;;;;;;10.52;5.39;;;;;;;2.71;87.96;100272.03;2339870;68;20264;-79
2021/10/11 02:02:53;;;;;;;8.02;5.60;;;;;;;2.69;87.69;100264.28;2354720;66;48704;-79
2021/10/11 02:05:56;;;;;;;8.06;5.91;;;;;;;2.68;87.62;100262.50;2346512;68;20300;-80
2021/10/11 02:08:59;;;;;;;10.23;6.49;;;;;;;2.68;87.38;100259.94;2355382;68;20252;-79
2021/10/11 02:12:02;;;;;;;10.94;7.10;;;;;;;2.69;87.39;100266.84;2343777;68;20253;-80
2021/10/11 02:15:06;;;;;;;13.24;8.01;;;;;;;2.71;87.35;100264.34;2348887;68;20252;-79
2021/10/11 02:18:08;;;;;;;11.79;6.97;;;;;;;2.72;87.34;100266.09;2347713;68;20241;-79
2021/10/11 02:21:11;;;;;;;10.91;7.19;;;;;;;2.68;87.36;100265.06;2349586;68;20394;-80
2021/10/11 02:24:13;;;;;;;11.85;7.46;;;;;;;2.65;87.53;100267.50;2338121;68;20312;-80
2021/10/11 02:27:16;;;;;;;10.51;7.47;;;;;;;2.65;87.66;100261.50;2339820;68;20303;-80
2021/10/11 02:30:19;;;;;;;12.36;7.14;;;;;;;2.66;87.45;100256.44;2347656;68;20241;-81
2021/10/11 02:33:21;;;;;;;15.73;8.26;;;;;;;2.66;87.14;100263.25;2349303;68;20337;-79
2021/10/11 02:36:24;;;;;;;12.48;7.85;;;;;;;2.66;86.96;100266.69;2339161;68;20249;-80
2021/10/11 02:39:27;;;;;;;13.70;8.31;;;;;;;2.65;86.69;100249.56;2347900;68;20350;-79
2021/10/11 02:42:29;;;;;;;15.18;7.97;;;;;;;2.64;86.78;100247.81;2356036;68;20248;-80
2021/10/11 02:45:32;;;;;;;14.06;8.61;;;;;;;2.68;86.87;100249.66;2344686;69;20301;-80
2021/10/11 02:48:35;;;;;;;17.49;9.50;;;;;;;2.72;86.93;100255.81;2356369;68;20248;-80
2021/10/11 02:51:37;;;;;;;14.23;9.23;;;;;;;2.77;87.09;100268.81;2343918;68;20360;-79
2021/10/11 02:54:40;;;;;;;15.19;9.46;;;;;;;2.76;87.51;100272.22;2345002;68;20232;-80
2021/10/11 02:57:42;;;;;;;17.75;9.11;;;;;;;2.77;87.80;100269.69;2343865;68;20441;-80
2021/10/11 03:00:45;;;;;;;13.59;8.98;;;;;;;2.71;87.70;100256.66;2342915;68;20331;-80
2021/10/11 03:03:48;;;;;;;13.95;9.11;;;;;;;2.68;87.91;100256.50;2352647;68;20328;-80
2021/10/11 03:06:50;;;;;;;14.63;9.45;;;;;;;2.68;87.94;100238.53;2347707;68;20249;-80
2021/10/11 03:09:53;;;;;;;13.07;8.81;;;;;;;2.69;87.71;100233.50;2350171;68;20311;-79
2021/10/11 03:12:55;;;;;;;16.63;9.54;;;;;;;2.68;87.49;100229.16;2357297;68;20689;-80
2021/10/11 03:15:58;;;;;;;13.94;8.39;;;;;;;2.69;87.46;100240.28;2337888;69;20260;-80
2021/10/11 03:19:01;;;;;;;11.68;7.54;;;;;;;2.69;87.65;100230.94;2348694;68;20300;-79
2021/10/11 03:22:05;;;;;;;11.76;7.68;;;;;;;2.70;87.70;100232.69;2337643;68;20249;-80
2021/10/11 03:25:07;;;;;;;12.49;8.19;;;;;;;2.65;87.70;100226.47;2336913;68;20248;-79
2021/10/11 03:28:10;;;;;;;13.24;8.13;;;;;;;2.62;87.75;100230.63;2348575;68;20257;-80
2021/10/11 03:31:13;;;;;;;13.84;8.27;;;;;;;2.59;87.84;100231.38;2349753;68;20738;-80
2021/10/11 03:34:16;;;;;;;12.44;7.75;;;;;;;2.54;87.80;100230.31;2342488;68;20323;-80
2021/10/11 03:37:18;;;;;;;10.81;7.85;;;;;;;2.55;88.08;100228.63;2348205;68;20237;-80
2021/10/11 03:40:21;;;;;;;11.02;6.86;;;;;;;2.61;88.30;100214.34;2335724;68;20248;-78
2021/10/11 03:43:23;;;;;;;8.98;6.53;;;;;;;2.62;88.53;100208.41;2346414;68;20308;-80
2021/10/11 03:46:26;;;;;;;7.97;5.86;;;;;;;2.63;88.89;100204.16;2341929;69;20307;-80
2021/10/11 03:49:29;;;;;;;8.13;6.28;;;;;;;2.68;89.40;100211.22;2349585;68;20249;-80
2021/10/11 03:52:31;;;;;;;7.66;5.97;;;;;;;2.75;89.58;100203.78;2339012;68;20308;-79
2021/10/11 03:55:34;;;;;;;11.40;6.57;;;;;;;2.77;89.59;100202.16;2340352;68;20322;-80
2021/10/11 03:58:37;;;;;;;9.84;6.50;;;;;;;2.80;89.38;100215.97;2336706;68;20364;-80
2021/10/11 04:01:39;;;;;;;9.68;6.86;;;;;;;2.78;89.31;100214.16;2359387;68;20363;-79
2021/10/11 04:04:42;;;;;;;11.27;7.18;;;;;;;2.75;89.44;100222.63;2353902;68;20329;-79
2021/10/11 04:07:49;;;;;;;12.69;7.60;;;;;;;2.77;89.50;100220.97;2341482;68;20335;-79
2021/10/11 04:11:01;;;;;;;16.26;7.00;;;;;;;2.83;nan;100226.34;2338351;68;20311;-80
2021/10/11 04:14:03;;;;;;;14.77;7.45;;;;;;;2.83;89.24;100226.34;2358667;68;20355;-80
2021/10/11 04:17:06;;;;;;;9.27;6.75;;;;;;;2.78;89.26;100226.97;2349547;67;29329;-80
2021/10/11 04:20:09;;;;;;;11.32;6.88;;;;;;;2.74;89.29;100233.69;2345214;68;20315;-80
2021/10/11 04:23:12;;;;;;;9.16;6.25;;;;;;;2.69;89.24;100236.06;2350970;68;20301;-79
2021/10/11 04:26:15;;;;;;;12.48;7.09;;;;;;;2.68;89.31;100236.84;2339063;68;20293;-80
2021/10/11 04:29:17;;;;;;;9.04;6.47;;;;;;;2.68;89.24;100236.84;2342876;68;20252;-80
2021/10/11 04:32:20;;;;;;;12.10;7.30;;;;;;;2.69;89.47;100235.16;2349610;66;45825;-80
2021/10/11 04:35:25;;;;;;;13.60;7.09;;;;;;;2.69;89.45;100250.53;2348818;68;20244;-80
2021/10/11 04:38:28;;;;;;;11.06;6.06;;;;;;;2.64;89.47;100252.94;2344004;68;20244;-79
2021/10/11 04:41:34;;;;;;;8.79;6.57;;;;;;;2.68;89.86;100259.94;2344982;68;20252;-80
2021/10/11 04:44:36;;;;;;;8.39;6.32;;;;;;;2.70;90.11;100262.59;2353441;68;20311;-79
2021/10/11 04:47:40;;;;;;;9.23;6.96;;;;;;;2.73;90.18;100262.72;2338721;66;56284;-79
2021/10/11 04:50:43;;;;;;;9.69;6.21;;;;;;;2.74;90.37;100256.75;2350630;68;20312;-80
2021/10/11 04:53:45;;;;;;;10.04;6.20;;;;;;;2.78;90.36;100256.06;2347807;68;20256;-78
2021/10/11 04:56:48;;;;;;;11.35;6.32;;;;;;;2.85;90.14;100258.06;2344972;68;20252;-80
2021/10/11 04:59:51;;;;;;;10.31;6.55;;;;;;;2.87;90.07;100251.31;2341743;69;20352;-79
2021/10/11 05:02:53;;;;;;;11.00;6.57;;;;;;;2.84;90.00;100247.72;2336703;66;40301;-80
2021/10/11 05:05:56;;;;;;;10.52;6.28;;;;;;;2.86;90.22;100249.53;2340140;68;20266;-79
2021/10/11 05:09:00;;;;;;;11.50;7.07;;;;;;;2.89;90.14;100246.25;2347294;68;20335;-80
2021/10/11 05:12:03;;;;;;;11.46;6.43;;;;;;;2.93;90.08;100236.16;2346382;68;20268;-80
2021/10/11 05:15:06;;;;;;;11.44;6.28;;;;;;;2.93;89.93;100249.00;2343884;68;20284;-80
2021/10/11 05:18:08;;;;;;;16.67;6.25;;;;;;;2.86;89.58;100249.53;2339249;68;20301;-80
2021/10/11 05:21:11;;;;;;;11.00;6.36;;;;;;;2.77;89.35;100253.44;2353486;68;20241;-83
2021/10/11 05:24:14;;;;;;;11.25;6.18;;;;;;;2.72;89.66;100266.09;2339979;68;20248;-81
2021/10/11 05:27:16;;;;;;;7.86;5.72;;;;;;;2.70;89.90;100266.03;2343120;68;20383;-81
2021/10/11 05:30:19;;;;;;;7.28;5.43;;;;;;;2.70;89.88;100268.59;2340976;69;20285;-81
2021/10/11 05:33:22;;;;;;;8.52;5.74;;;;;;;2.73;90.13;100273.84;2354332;68;20241;-82
2021/10/11 05:36:25;;;;;;;7.39;5.05;;;;;;;2.78;90.05;100273.13;2353311;68;20256;-79
2021/10/11 05:39:28;;;;;;;7.70;5.44;;;;;;;2.75;89.94;100268.78;2338882;68;20266;-80
2021/10/11 05:42:30;;;;;;;6.43;4.97;;;;;;;2.69;89.72;100261.72;2351363;68;20305;-81
2021/10/11 05:45:34;;;;;;;8.29;5.25;;;;;;;2.64;89.50;100263.19;2341642;69;20252;-82
2021/10/11 08:19:02;;;;;;;13.75;6.70;;;;;;;5.70;86.03;100353.00;2314847;68;20455;-81
2021/10/11 08:22:08;;;;;;;11.36;5.85;;;;;;;5.76;86.28;100360.06;2337053;68;20357;-78
2021/10/11 08:25:11;;;;;;;12.94;7.11;;;;;;;5.80;86.28;100359.34;2325788;68;20417;-78
2021/10/11 08:28:13;;;;;;;11.86;6.56;;;;;;;5.80;86.35;100356.75;2326036;68;20302;-77
2021/10/11 08:31:19;;;;;;;10.07;6.29;;;;;;;5.85;86.24;100357.75;2323800;66;27086;-78
2021/10/11 08:34:22;;;;;;;17.29;7.15;;;;;;;5.91;86.41;100365.69;2325032;68;20307;-78
2021/10/11 08:37:25;;;;;;;11.43;6.50;;;;;;;5.92;86.37;100366.56;2325939;68;20279;-78
2021/10/11 08:40:29;;;;;;;11.69;6.34;;;;;;;5.93;86.31;100374.38;2324836;68;20764;-77
2021/10/11 08:43:31;;;;;;;9.95;6.53;;;;;;;5.99;86.58;100364.25;2327360;68;20451;-78
2021/10/11 08:46:34;;;;;;;16.61;6.89;;;;;;;6.09;86.75;100361.91;2326039;65;20906;-78
2021/10/11 08:49:49;;;;;;;10.93;6.82;;;;;;;6.21;86.57;100359.69;2332747;68;20298;-79
2021/10/11 08:52:59;;;;;;;15.04;7.00;;;;;;;6.30;86.60;100370.28;2336910;68;20295;-80
2021/10/11 08:56:11;;;;;;;14.13;7.19;;;;;;;6.43;86.73;100377.53;2327028;68;20440;-78
2021/10/11 08:59:28;;;;;;;17.16;7.91;;;;;;;6.53;86.64;100376.09;2325932;68;20340;-78
2021/10/11 09:02:34;;;;;;;17.24;7.93;;;;;;;6.56;86.49;100374.47;2321398;66;23618;-77
2021/10/11 09:05:43;;;;;;;17.48;7.78;;;;;;;6.66;85.91;100373.88;2329145;68;20341;-77
2021/10/11 09:08:48;;;;;;;16.54;8.30;;;;;;;6.72;85.90;100373.16;2326212;68;20401;-78
2021/10/11 09:11:51;;;;;;;17.41;8.29;;;;;;;6.77;85.84;100381.03;2331116;68;20310;-77
2021/10/11 09:15:08;;;;;;;15.20;8.60;;;;;;;6.84;85.73;100367.47;2318098;68;20295;-79
2021/10/11 09:18:26;;;;;;;20.30;8.68;;;;;;;6.90;85.94;100355.59;2328599;68;20320;-78
2021/10/11 09:21:35;;;;;;;17.23;9.21;;;;;;;7.00;85.81;100356.69;2331328;68;20330;-79
2021/10/11 09:24:38;;;;;;;21.10;9.48;;;;;;;7.13;85.76;100355.28;2332818;68;20311;-79
2021/10/11 09:36:35;;;;;;;23.41;9.85;;;;;;;7.60;85.06;100345.22;2337042;68;20261;-80
2021/10/11 09:39:39;;;;;;;21.11;10.57;;;;;;;7.77;84.81;100354.22;2350445;68;20255;-81
2021/10/11 09:42:42;;;;;;;25.10;11.64;;;;;;;7.86;85.02;100341.50;2336824;68;20294;-81
2021/10/11 09:45:45;;;;;;;28.26;11.31;;;;;;;8.04;84.95;100349.63;2333086;68;22718;-80
2021/10/11 09:48:53;;;;;;;24.98;12.25;;;;;;;8.21;84.75;100352.56;2342735;68;20704;-80
2021/10/11 09:51:56;;;;;;;22.86;12.26;;;;;;;8.39;84.32;100357.28;2339480;68;20308;-80
2021/10/11 09:55:00;;;;;;;23.67;12.01;;;;;;;8.59;83.97;100371.47;2345476;68;20275;-82
2021/10/11 09:58:03;;;;;;;25.54;11.91;;;;;;;8.81;83.56;100364.16;2334068;68;20169;-80
2021/10/11 10:01:10;;;;;;;25.10;11.98;;;;;;;8.99;83.17;100356.69;2329466;66;23490;-79
2021/10/11 10:04:19;;;;;;;24.83;12.70;;;;;;;9.16;82.65;100354.41;2326790;68;20307;-78
2021/10/11 10:07:26;;;;;;;25.79;12.73;;;;;;;9.26;82.16;100351.97;2326291;68;20255;-79
2021/10/11 10:10:30;;;;;;;22.66;11.43;;;;;;;9.39;82.28;100350.44;2325026;68;20223;-77
2021/10/11 10:13:46;;;;;;;23.99;12.19;;;;;;;9.54;82.11;100348.09;2324329;68;20220;-77
2021/10/11 10:16:50;;;;;;;21.73;12.10;;;;;;;9.58;81.57;100346.41;2323992;66;20712;-78
2021/10/11 10:20:09;;;;;;;23.42;12.13;;;;;;;9.68;81.52;100343.97;2322988;68;20152;-78
2021/10/11 10:23:24;;;;;;;18.98;11.54;;;;;;;9.90;81.60;100339.09;2322435;68;20163;-77
2021/10/11 10:26:35;;;;;;;25.71;13.26;;;;;;;10.12;81.32;100332.47;2325517;68;20155;-77
2021/10/11 10:29:40;;;;;;;23.55;12.29;;;;;;;10.27;80.32;100332.69;2323785;68;20349;-77
2021/10/11 10:33:00;;;;;;;23.69;12.27;;;;;;;10.36;79.42;100335.38;2320356;67;41994;-77
2021/10/11 10:36:05;;;;;;;25.52;12.13;;;;;;;10.46;79.05;100323.38;2323510;68;20155;-77
2021/10/11 10:39:10;;;;;;;22.86;11.95;;;;;;;10.55;78.87;100329.53;2325457;68;20695;-77
2021/10/11 10:42:26;;;;;;;20.84;11.35;;;;;;;10.49;78.65;100326.88;2324679;68;20215;-77
2021/10/11 10:45:33;;;;;;;23.60;11.70;;;;;;;10.48;79.10;100326.88;2322001;66;21032;-77
2021/10/11 10:48:46;;;;;;;22.74;11.11;;;;;;;10.50;79.61;100327.75;2325668;68;20163;-77
2021/10/11 10:51:49;;;;;;;21.09;10.70;;;;;;;10.56;79.90;100333.00;2325999;68;20517;-76
2021/10/11 10:54:55;;;;;;;25.46;12.19;;;;;;;10.60;80.03;100327.00;2327688;68;20163;-78
2021/10/11 10:58:04;;;;;;;23.86;12.59;;;;;;;10.63;79.90;100318.38;2328081;68;20204;-78
2021/10/11 11:01:07;;;;;;;27.26;11.59;;;;;;;10.65;79.67;100317.53;2324730;67;24072;-79
2021/10/11 11:04:12;;;;;;;19.67;10.96;;;;;;;10.83;80.22;100314.25;2327393;68;20194;-79
2021/10/11 11:07:21;;;;;;;24.61;11.71;;;;;;;11.05;79.86;100307.50;2321251;68;20160;-77
2021/10/11 11:10:27;;;;;;;24.79;12.04;;;;;;;11.55;80.48;100302.69;2324982;68;20194;-77
2021/10/11 11:13:30;;;;;;;20.15;12.09;;;;;;;12.05;78.11;100318.59;2324878;68;20606;-78
2021/10/11 11:16:34;;;;;;;22.71;12.94;;;;;;;12.37;76.52;100310.00;2323748;66;20704;-78
2021/10/11 11:19:38;;;;;;;26.95;11.66;;;;;;;12.64;76.04;100302.28;2326776;68;20171;-77
2021/10/11 11:22:42;;;;;;;18.67;11.89;;;;;;;12.98;75.92;100299.72;2326758;68;20200;-77
2021/10/11 11:25:47;;;;;;;24.15;12.32;;;;;;;13.23;75.23;100296.25;2327014;68;20166;-78
2021/10/11 11:28:49;;;;;;;28.05;14.71;;;;;;;13.48;74.46;100289.28;2324758;68;20227;-78
2021/10/11 11:31:53;;;;;;;44.79;19.15;;;;;;;13.70;73.66;100286.63;2325560;66;25415;-79
2021/10/11 11:35:37;;;;;;;21.91;13.31;;;;;;;13.94;73.19;100288.28;2327849;68;20970;-78
2021/10/11 11:38:40;;;;;;;18.77;11.21;;;;;;;14.30;72.52;100277.66;2325129;68;20707;-79
2021/10/11 11:41:55;;;;;;;19.35;12.19;;;;;;;14.67;70.96;100280.97;2328052;68;20175;-80
2021/10/11 11:45:01;;;;;;;16.41;11.57;;;;;;;15.07;70.87;100265.81;2328987;68;20147;-79
2021/10/11 11:48:34;;;;;;;18.00;12.01;;;;;;;15.41;69.16;100255.03;2310061;67;511486;-80
2021/10/11 11:52:26;;;;;;;14.66;10.96;;;;;;;15.59;68.31;100269.72;2334979;68;20508;-80
2021/10/11 11:55:57;;;;;;;16.04;9.80;;;;;;;15.62;66.93;100262.72;2330103;68;20184;-80
2021/10/11 11:59:12;;;;;;;18.09;9.86;;;;;;;15.82;67.38;100267.72;2330869;68;20220;-79
2021/10/11 12:02:20;;;;;;;14.63;10.64;;;;;;;15.98;66.74;100268.41;2316352;66;229704;-80
2021/10/11 12:05:32;;;;;;;11.35;9.48;;;;;;;16.05;65.84;100267.44;2322922;68;20198;-80
2021/10/11 12:08:42;;;;;;;14.46;9.32;;;;;;;16.12;65.39;100273.47;2308595;69;20632;-80
2021/10/11 12:12:04;;;;;;;11.16;9.42;;;;;;;16.17;64.11;100256.81;2319850;69;20192;-80
2021/10/11 12:15:21;;;;;;;10.96;8.55;;;;;;;16.40;64.26;100250.38;2320684;68;20172;-79
2021/10/11 12:18:52;;;;;;;7.96;7.15;;;;;;;16.63;63.26;100253.53;2321613;69;20151;-79
2021/10/11 12:22:09;;;;;;;5.84;5.32;;;;;;;16.74;61.66;100250.78;2316771;69;20505;-80
2021/10/11 12:25:31;;;;;;;8.48;6.10;;;;;;;16.73;60.81;100249.91;2319878;68;20229;-80
2021/10/11 12:28:59;;;;;;;6.88;5.94;;;;;;;16.77;61.78;100245.47;2322152;69;20147;-79
2021/10/11 12:32:09;;;;;;;5.88;4.79;;;;;;;16.91;61.33;100257.50;2316674;69;20261;-79
2021/10/11 12:35:21;;;;;;;8.64;7.15;;;;;;;16.90;60.67;100254.91;2321084;68;20167;-79
2021/10/11 12:38:43;;;;;;;7.43;5.94;;;;;;;16.74;60.41;100256.03;2319775;69;20273;-79
2021/10/11 12:41:50;;;;;;;7.56;6.64;;;;;;;16.56;61.73;100255.38;2324168;69;20148;-80
2021/10/11 12:44:57;;;;;;;9.36;7.09;;;;;;;16.43;61.93;100255.56;2323470;68;20168;-79
2021/10/11 12:48:04;;;;;;;12.23;7.40;;;;;;;16.23;62.13;100250.63;2321550;66;22305;-79
2021/10/11 12:51:06;;;;;;;7.54;6.75;;;;;;;16.09;63.04;100242.06;2324522;69;20576;-79
2021/10/11 12:54:11;;;;;;;8.91;6.65;;;;;;;15.93;63.18;100238.78;2322901;69;20179;-79
2021/10/11 12:57:24;;;;;;;8.05;6.14;;;;;;;15.83;64.02;100239.78;2323485;69;20179;-79
2021/10/11 13:00:27;;;;;;;9.51;7.26;;;;;;;15.73;64.64;100241.63;2320210;69;20635;-79
2021/10/11 13:03:31;;;;;;;7.13;6.05;;;;;;;15.57;64.35;100243.53;2323219;68;20155;-79
2021/10/11 13:06:34;;;;;;;6.36;5.59;;;;;;;15.35;64.66;100242.03;2323034;69;20185;-80
2021/10/11 13:09:37;;;;;;;6.94;5.69;;;;;;;15.22;65.80;100245.63;2322417;69;20144;-80
2021/10/11 13:12:40;;;;;;;7.01;6.15;;;;;;;15.13;66.46;100248.34;2322007;69;20181;-80
2021/10/11 13:15:48;;;;;;;6.19;5.50;;;;;;;15.00;66.69;100240.59;2311678;68;971634;-80
2021/10/11 13:18:54;;;;;;;6.03;5.47;;;;;;;14.92;67.03;100245.06;2322038;69;20183;-80
2021/10/11 13:22:02;;;;;;;7.57;5.61;;;;;;;14.82;67.76;100253.84;2322017;69;21083;-80
2021/10/11 13:25:06;;;;;;;7.89;5.70;;;;;;;14.72;68.14;100254.78;2321073;68;20163;-79
2021/10/11 13:28:09;;;;;;;6.36;5.49;;;;;;;14.61;68.97;100252.25;2321325;69;20696;-79
2021/10/11 14:27:53;;;;;;;7.60;4.14;;;;;;;15.95;65.21;100221.28;2305299;69;20624;-80
2021/10/11 15:59:19;;;;;;;4.50;1.34;;;;;;;13.83;74.77;100196.97;2319327;69;21112;-78
2021/10/11 16:02:42;;;;;;;5.32;1.52;;;;;;;13.76;74.64;100203.94;2317224;66;22012;-79
2021/10/11 16:05:44;;;;;;;2.80;1.33;;;;;;;13.70;74.87;100203.97;2319880;68;20222;-79
2021/10/11 16:08:47;;;;;;;3.31;1.19;;;;;;;13.63;75.54;100202.25;2320057;69;20860;-78
2021/10/11 16:11:50;;;;;;;5.41;1.30;;;;;;;13.53;75.77;100201.44;2319688;69;20352;-79
2021/10/11 16:14:54;;;;;;;3.29;1.20;;;;;;;13.45;76.28;100202.31;2319962;68;20159;-80
2021/10/11 16:18:36;;;;;;;9.41;1.39;;;;;;;13.31;76.73;100210.19;2317693;66;28119;-80
2021/10/11 16:21:39;;;;;;;9.40;1.49;;;;;;;13.14;77.13;100204.97;2318842;69;20259;-78
2021/10/11 16:24:41;;;;;;;8.02;1.79;;;;;;;13.02;77.13;100207.59;2318451;68;20148;-78
2021/10/11 16:27:44;;;;;;;7.86;1.36;;;;;;;12.93;76.92;100205.88;2319471;69;20585;-78
2021/10/11 16:30:47;;;;;;;11.50;1.08;;;;;;;12.83;76.84;100204.13;2315269;67;48047;-79
2021/10/11 16:33:50;;;;;;;10.82;1.23;;;;;;;12.70;77.03;100210.22;2318687;68;20790;-78
2021/10/11 16:36:54;;;;;;;17.04;1.44;;;;;;;12.58;77.20;100208.50;2317765;68;20834;-79
2021/10/11 16:39:56;;;;;;;10.61;0.93;;;;;;;12.49;77.31;100213.69;2318165;69;20160;-78
2021/10/11 16:43:00;;;;;;;4.71;1.59;;;;;;;12.35;77.91;100207.56;2318050;68;20163;-78
2021/10/11 16:46:05;;;;;;;5.50;1.13;;;;;;;12.24;77.80;100215.38;2318026;66;20577;-78
2021/10/11 16:49:08;;;;;;;3.26;1.06;;;;;;;12.13;78.20;100211.00;2314912;69;20160;-79
2021/10/11 16:52:10;;;;;;;4.55;0.91;;;;;;;11.96;78.86;100219.63;2319572;69;20212;-78
2021/10/11 16:55:15;;;;;;;4.89;0.96;;;;;;;11.80;79.18;100213.50;2319367;68;20173;-79
2021/10/11 16:58:18;;;;;;;4.72;1.02;;;;;;;11.67;79.50;100229.91;2318816;69;20192;-78
2021/10/11 17:01:20;;;;;;;3.89;0.99;;;;;;;11.55;79.50;100224.66;2317253;66;21395;-79
2021/10/11 17:04:23;;;;;;;5.32;0.96;;;;;;;11.39;79.47;100223.69;2320312;68;20143;-79
2021/10/11 17:07:26;;;;;;;3.59;0.99;;;;;;;11.25;79.75;100229.66;2319816;69;20183;-78
2021/10/11 17:10:30;;;;;;;3.26;1.00;;;;;;;11.10;80.05;100233.03;2321261;69;20215;-79
2021/10/11 17:13:34;;;;;;;2.33;0.95;;;;;;;10.94;80.33;100232.03;2320866;68;20203;-79
2021/10/11 17:16:38;;;;;;;3.78;1.10;;;;;;;10.84;80.41;100238.91;2317912;66;22571;-79
2021/10/11 17:19:40;;;;;;;2.70;1.29;;;;;;;10.73;80.50;100239.66;2319106;69;20151;-79
2021/10/11 17:22:44;;;;;;;2.21;1.21;;;;;;;10.60;80.66;100249.09;2320125;69;20147;-79
2021/10/11 17:25:46;;;;;;;3.28;1.10;;;;;;;10.46;81.04;100243.75;2321314;68;20244;-79
2021/10/11 17:28:49;;;;;;;3.84;1.38;;;;;;;10.34;81.20;100245.34;2319107;69;20160;-79
2021/10/11 17:31:52;;;;;;;2.71;1.00;;;;;;;10.22;81.29;100244.38;2318117;66;21173;-79
2021/10/11 17:34:54;;;;;;;4.99;0.98;;;;;;;10.07;81.24;100246.78;2319576;68;20143;-79
2021/10/11 17:37:57;;;;;;;1.91;0.98;;;;;;;9.92;81.41;100249.19;2320437;69;20195;-80
2021/10/11 17:41:00;;;;;;;3.39;1.13;;;;;;;9.79;81.72;100258.53;2316266;69;20143;-80
2021/10/11 17:44:02;;;;;;;5.64;1.19;;;;;;;9.67;81.98;100253.19;2320201;68;20152;-80
2021/10/11 17:47:05;;;;;;;5.10;1.09;;;;;;;9.63;82.44;100262.66;2319267;67;23616;-80
2021/10/11 17:50:09;;;;;;;2.81;0.99;;;;;;;9.58;82.95;100258.28;2318939;69;20260;-79
2021/10/11 17:53:33;;;;;;;5.22;1.73;;;;;;;9.55;83.42;100258.22;2318130;68;20274;-79
2021/10/11 17:56:35;;;;;;;2.55;0.90;;;;;;;9.51;83.75;100262.47;2318134;69;20152;-79
2021/10/11 17:59:38;;;;;;;2.74;1.00;;;;;;;9.45;84.22;100265.00;2320055;69;20212;-79
2021/10/11 18:02:41;;;;;;;4.61;1.10;;;;;;;9.42;84.56;100271.88;2317506;69;21178;-79
2021/10/11 18:05:44;;;;;;;7.26;1.96;;;;;;;9.36;84.53;100270.94;2320534;68;20144;-79
2021/10/11 18:08:50;;;;;;;2.81;1.24;;;;;;;9.33;84.85;100267.41;2319897;69;20167;-80
2021/10/11 18:11:53;;;;;;;5.06;1.21;;;;;;;9.29;84.94;100273.41;2319562;69;20156;-80
2021/10/11 18:14:57;;;;;;;2.34;1.10;;;;;;;9.28;85.20;100271.66;2319102;68;20152;-80
2021/10/11 18:17:59;;;;;;;3.33;1.10;;;;;;;9.25;85.36;100264.72;2316991;67;26961;-80
2021/10/11 18:21:02;;;;;;;4.56;1.20;;;;;;;9.24;85.41;100275.94;2321023;69;20288;-80
2021/10/11 18:24:04;;;;;;;3.55;1.16;;;;;;;9.20;85.39;100274.16;2319755;68;20232;-79
2021/10/11 18:27:09;;;;;;;5.57;1.35;;;;;;;9.14;85.29;100279.22;2319624;69;20151;-79
2021/10/11 18:30:11;;;;;;;3.74;1.30;;;;;;;9.07;85.41;100274.78;2318668;69;20255;-78
2021/10/11 18:33:14;;;;;;;2.56;1.15;;;;;;;9.01;85.53;100275.56;2318589;66;22441;-78
2021/10/11 18:36:17;;;;;;;3.58;1.20;;;;;;;8.95;85.69;100280.63;2315024;69;20240;-79
2021/10/11 18:39:21;;;;;;;4.24;1.21;;;;;;;8.88;85.88;100278.81;2318486;69;20224;-78
2021/10/11 18:42:24;;;;;;;3.83;1.31;;;;;;;8.84;86.03;100273.56;2319258;69;20300;-78
2021/10/11 18:45:27;;;;;;;2.53;1.15;;;;;;;8.81;86.34;100268.34;2318672;67;24007;-79
2021/10/11 18:48:33;;;;;;;3.83;1.33;;;;;;;8.79;86.68;100273.47;2320020;69;20803;-78
2021/10/11 18:51:39;;;;;;;3.29;1.15;;;;;;;8.81;87.10;100270.91;2319992;69;20176;-79
2021/10/11 18:54:43;;;;;;;3.10;1.48;;;;;;;8.82;87.39;100259.72;2320345;69;20231;-79
2021/10/11 18:57:47;;;;;;;5.44;2.09;;;;;;;8.81;87.34;100258.84;2319864;69;20267;-78
2021/10/11 19:00:50;;;;;;;4.71;1.91;;;;;;;8.78;87.55;100253.59;2315995;66;22014;-78
2021/10/11 19:03:53;;;;;;;3.42;1.94;;;;;;;8.75;87.29;100254.41;2319556;69;20192;-79
2021/10/11 19:06:56;;;;;;;4.30;1.88;;;;;;;8.70;87.19;100252.59;2321207;69;20305;-79
2021/10/11 19:09:59;;;;;;;4.19;2.25;;;;;;;8.66;87.10;100266.34;2324287;68;20144;-79
2021/10/11 19:13:03;;;;;;;4.03;1.94;;;;;;;8.62;86.94;100267.16;2319596;69;20239;-79
2021/10/11 19:16:05;;;;;;;3.83;1.88;;;;;;;8.56;86.89;100277.38;2318916;67;22680;-79
2021/10/11 19:19:08;;;;;;;5.07;1.74;;;;;;;8.52;87.11;100267.81;2318824;69;20185;-77
2021/10/11 19:22:11;;;;;;;2.74;1.89;;;;;;;8.44;87.22;100272.88;2324520;68;20288;-77
2021/10/11 19:25:15;;;;;;;5.04;2.06;;;;;;;8.42;87.08;100271.94;2319439;69;21251;-78
2021/10/11 19:28:18;;;;;;;3.50;1.81;;;;;;;8.34;87.09;100277.00;2318976;69;20413;-77
2021/10/11 19:31:21;;;;;;;5.66;1.59;;;;;;;8.31;87.17;100276.91;2317319;68;23534;-78
2021/10/11 19:34:23;;;;;;;3.11;1.66;;;;;;;8.23;87.21;100275.88;2320288;69;20422;-77